sensor_id;sensor_type;location;lat;lon;timestamp;P1;durP1;ratioP1;P2;durP2;ratioP2
19446;SDS011;9862;49.462;11.054;2022-12-18T00:01:56;77.68;;;37.50;;
19446;SDS011;9862;49.462;11.054;2022-12-18T00:04:24;84.65;;;39.97;;
19446;SDS011;9862;49.462;11.054;2022-12-18T00:06:52;74.95;;;38.28;;
19446;SDS011;9862;49.462;11.054;2022-12-18T00:09:19;74.50;;;39.50;;
19446;SDS011;9862;49.462;11.054;2022-12-18T00:11:46;73.35;;;37.65;;
19446;SDS011;9862;49.462;11.054;2022-12-18T00:14:14;80.13;;;38.15;;
19446;SDS011;9862;49.462;11.054;2022-12-18T00:16:42;84.38;;;39.60;;
19446;SDS011;9862;49.462;11.054;2022-12-18T00:19:10;74.53;;;37.55;;
19446;SDS011;9862;49.462;11.054;2022-12-18T00:21:37;79.03;;;38.90;;
19446;SDS011;9862;49.462;11.054;2022-12-18T00:24:03;77.03;;;38.15;;
19446;SDS011;9862;49.462;11.054;2022-12-18T00:26:31;73.90;;;36.38;;
19446;SDS011;9862;49.462;11.054;2022-12-18T00:28:59;77.88;;;38.85;;
19446;SDS011;9862;49.462;11.054;2022-12-18T00:31:28;75.22;;;38.83;;
19446;SDS011;9862;49.462;11.054;2022-12-18T00:33:55;76.70;;;38.33;;
19446;SDS011;9862;49.462;11.054;2022-12-18T00:36:23;83.75;;;40.55;;
19446;SDS011;9862;49.462;11.054;2022-12-18T00:38:52;77.88;;;38.75;;
19446;SDS011;9862;49.462;11.054;2022-12-18T00:41:19;85.82;;;39.20;;
19446;SDS011;9862;49.462;11.054;2022-12-18T00:44:00;79.85;;;39.53;;
19446;SDS011;9862;49.462;11.054;2022-12-18T00:46:28;81.63;;;41.40;;
19446;SDS011;9862;49.462;11.054;2022-12-18T00:48:55;82.88;;;39.47;;
19446;SDS011;9862;49.462;11.054;2022-12-18T00:51:22;79.07;;;39.53;;
19446;SDS011;9862;49.462;11.054;2022-12-18T00:53:49;78.25;;;39.10;;
19446;SDS011;9862;49.462;11.054;2022-12-18T00:56:15;77.38;;;39.78;;
19446;SDS011;9862;49.462;11.054;2022-12-18T00:58:42;85.55;;;40.55;;
19446;SDS011;9862;49.462;11.054;2022-12-18T01:01:08;77.68;;;39.13;;
19446;SDS011;9862;49.462;11.054;2022-12-18T01:03:36;84.88;;;42.20;;
19446;SDS011;9862;49.462;11.054;2022-12-18T01:06:05;93.70;;;45.55;;
19446;SDS011;9862;49.462;11.054;2022-12-18T01:08:32;75.97;;;37.80;;
19446;SDS011;9862;49.462;11.054;2022-12-18T01:10:59;88.28;;;40.53;;
19446;SDS011;9862;49.462;11.054;2022-12-18T01:13:26;72.18;;;38.38;;
19446;SDS011;9862;49.462;11.054;2022-12-18T01:15:52;78.60;;;36.45;;
19446;SDS011;9862;49.462;11.054;2022-12-18T01:18:19;79.28;;;39.03;;
19446;SDS011;9862;49.462;11.054;2022-12-18T01:20:47;75.70;;;37.25;;
19446;SDS011;9862;49.462;11.054;2022-12-18T01:23:13;76.75;;;37.58;;
19446;SDS011;9862;49.462;11.054;2022-12-18T01:25:40;80.50;;;36.40;;
19446;SDS011;9862;49.462;11.054;2022-12-18T01:28:07;75.15;;;37.30;;
19446;SDS011;9862;49.462;11.054;2022-12-18T01:30:33;77.22;;;38.72;;
19446;SDS011;9862;49.462;11.054;2022-12-18T01:33:00;73.57;;;36.55;;
19446;SDS011;9862;49.462;11.054;2022-12-18T01:35:26;70.15;;;35.78;;
19446;SDS011;9862;49.462;11.054;2022-12-18T01:37:55;71.40;;;34.22;;
19446;SDS011;9862;49.462;11.054;2022-12-18T01:40:21;73.20;;;35.70;;
19446;SDS011;9862;49.462;11.054;2022-12-18T01:42:49;70.43;;;35.78;;
19446;SDS011;9862;49.462;11.054;2022-12-18T01:45:22;64.07;;;29.23;;
19446;SDS011;9862;49.462;11.054;2022-12-18T01:47:52;57.78;;;27.42;;
19446;SDS011;9862;49.462;11.054;2022-12-18T01:50:21;58.70;;;27.13;;
19446;SDS011;9862;49.462;11.054;2022-12-18T01:52:51;55.78;;;26.08;;
19446;SDS011;9862;49.462;11.054;2022-12-18T01:55:22;47.33;;;25.45;;
19446;SDS011;9862;49.462;11.054;2022-12-18T01:57:51;49.10;;;24.00;;
19446;SDS011;9862;49.462;11.054;2022-12-18T02:00:20;48.92;;;23.10;;
19446;SDS011;9862;49.462;11.054;2022-12-18T02:02:48;52.35;;;24.80;;
19446;SDS011;9862;49.462;11.054;2022-12-18T02:05:16;55.35;;;25.20;;
19446;SDS011;9862;49.462;11.054;2022-12-18T02:07:47;52.15;;;25.23;;
19446;SDS011;9862;49.462;11.054;2022-12-18T02:10:24;42.92;;;23.48;;
19446;SDS011;9862;49.462;11.054;2022-12-18T02:12:56;49.63;;;23.80;;
19446;SDS011;9862;49.462;11.054;2022-12-18T02:15:31;62.20;;;29.40;;
19446;SDS011;9862;49.462;11.054;2022-12-18T02:18:03;60.03;;;25.63;;
19446;SDS011;9862;49.462;11.054;2022-12-18T02:20:34;52.95;;;23.05;;
19446;SDS011;9862;49.462;11.054;2022-12-18T02:23:06;47.90;;;22.42;;
19446;SDS011;9862;49.462;11.054;2022-12-18T02:25:55;48.42;;;22.23;;
19446;SDS011;9862;49.462;11.054;2022-12-18T02:28:33;42.25;;;19.75;;
19446;SDS011;9862;49.462;11.054;2022-12-18T02:31:04;47.38;;;20.20;;
19446;SDS011;9862;49.462;11.054;2022-12-18T02:33:34;43.47;;;19.33;;
19446;SDS011;9862;49.462;11.054;2022-12-18T02:36:02;38.72;;;17.98;;
19446;SDS011;9862;49.462;11.054;2022-12-18T02:38:29;46.60;;;19.98;;
19446;SDS011;9862;49.462;11.054;2022-12-18T02:40:58;47.03;;;20.90;;
19446;SDS011;9862;49.462;11.054;2022-12-18T02:43:26;50.72;;;21.17;;
19446;SDS011;9862;49.462;11.054;2022-12-18T02:45:53;44.97;;;20.13;;
19446;SDS011;9862;49.462;11.054;2022-12-18T02:48:22;45.58;;;19.52;;
19446;SDS011;9862;49.462;11.054;2022-12-18T02:50:59;52.58;;;22.05;;
19446;SDS011;9862;49.462;11.054;2022-12-18T02:53:36;42.08;;;19.02;;
19446;SDS011;9862;49.462;11.054;2022-12-18T02:56:09;52.17;;;20.70;;
19446;SDS011;9862;49.462;11.054;2022-12-18T02:58:41;52.60;;;20.60;;
19446;SDS011;9862;49.462;11.054;2022-12-18T03:01:18;45.78;;;18.02;;
19446;SDS011;9862;49.462;11.054;2022-12-18T03:03:50;49.60;;;20.40;;
19446;SDS011;9862;49.462;11.054;2022-12-18T03:06:21;50.00;;;20.00;;
19446;SDS011;9862;49.462;11.054;2022-12-18T03:08:53;53.22;;;19.10;;
19446;SDS011;9862;49.462;11.054;2022-12-18T03:11:25;57.40;;;21.98;;
19446;SDS011;9862;49.462;11.054;2022-12-18T03:14:08;53.53;;;18.88;;
19446;SDS011;9862;49.462;11.054;2022-12-18T03:16:37;42.28;;;18.02;;
19446;SDS011;9862;49.462;11.054;2022-12-18T03:19:06;48.65;;;19.58;;
19446;SDS011;9862;49.462;11.054;2022-12-18T03:21:38;48.20;;;19.48;;
19446;SDS011;9862;49.462;11.054;2022-12-18T03:24:09;46.75;;;19.08;;
19446;SDS011;9862;49.462;11.054;2022-12-18T03:26:40;48.08;;;18.25;;
19446;SDS011;9862;49.462;11.054;2022-12-18T03:29:11;47.42;;;18.55;;
19446;SDS011;9862;49.462;11.054;2022-12-18T03:31:45;47.08;;;18.98;;
19446;SDS011;9862;49.462;11.054;2022-12-18T03:34:20;50.92;;;19.90;;
19446;SDS011;9862;49.462;11.054;2022-12-18T03:36:51;41.55;;;17.25;;
19446;SDS011;9862;49.462;11.054;2022-12-18T03:39:18;45.25;;;17.45;;
19446;SDS011;9862;49.462;11.054;2022-12-18T03:41:47;43.80;;;17.60;;
19446;SDS011;9862;49.462;11.054;2022-12-18T03:44:19;36.53;;;17.38;;
19446;SDS011;9862;49.462;11.054;2022-12-18T03:46:54;40.88;;;17.80;;
19446;SDS011;9862;49.462;11.054;2022-12-18T03:49:31;43.15;;;17.42;;
19446;SDS011;9862;49.462;11.054;2022-12-18T03:52:01;33.45;;;16.75;;
19446;SDS011;9862;49.462;11.054;2022-12-18T03:54:30;37.78;;;15.55;;
19446;SDS011;9862;49.462;11.054;2022-12-18T03:57:03;38.60;;;16.75;;
19446;SDS011;9862;49.462;11.054;2022-12-18T03:59:33;37.92;;;17.42;;
19446;SDS011;9862;49.462;11.054;2022-12-18T04:02:02;43.60;;;17.45;;
19446;SDS011;9862;49.462;11.054;2022-12-18T04:04:32;34.38;;;15.30;;
19446;SDS011;9862;49.462;11.054;2022-12-18T04:07:00;40.22;;;16.38;;
19446;SDS011;9862;49.462;11.054;2022-12-18T04:09:28;41.15;;;17.42;;
19446;SDS011;9862;49.462;11.054;2022-12-18T04:11:58;36.15;;;16.67;;
19446;SDS011;9862;49.462;11.054;2022-12-18T04:14:26;33.38;;;15.07;;
19446;SDS011;9862;49.462;11.054;2022-12-18T04:16:52;34.20;;;15.88;;
19446;SDS011;9862;49.462;11.054;2022-12-18T04:19:19;38.03;;;16.95;;
19446;SDS011;9862;49.462;11.054;2022-12-18T04:21:45;38.97;;;15.30;;
19446;SDS011;9862;49.462;11.054;2022-12-18T04:24:12;37.50;;;15.30;;
19446;SDS011;9862;49.462;11.054;2022-12-18T04:26:38;38.25;;;16.08;;
19446;SDS011;9862;49.462;11.054;2022-12-18T04:29:05;38.65;;;15.30;;
19446;SDS011;9862;49.462;11.054;2022-12-18T04:31:33;31.48;;;14.05;;
19446;SDS011;9862;49.462;11.054;2022-12-18T04:33:59;38.70;;;17.13;;
19446;SDS011;9862;49.462;11.054;2022-12-18T04:36:26;37.55;;;15.88;;
19446;SDS011;9862;49.462;11.054;2022-12-18T04:38:52;36.47;;;15.70;;
19446;SDS011;9862;49.462;11.054;2022-12-18T04:41:19;35.85;;;14.77;;
19446;SDS011;9862;49.462;11.054;2022-12-18T04:43:46;34.22;;;14.93;;
19446;SDS011;9862;49.462;11.054;2022-12-18T04:46:12;34.60;;;14.85;;
19446;SDS011;9862;49.462;11.054;2022-12-18T04:48:41;36.22;;;15.48;;
19446;SDS011;9862;49.462;11.054;2022-12-18T04:51:07;39.00;;;15.75;;
19446;SDS011;9862;49.462;11.054;2022-12-18T04:53:34;35.72;;;15.23;;
19446;SDS011;9862;49.462;11.054;2022-12-18T04:56:04;39.90;;;16.17;;
19446;SDS011;9862;49.462;11.054;2022-12-18T04:58:32;31.73;;;13.43;;
19446;SDS011;9862;49.462;11.054;2022-12-18T05:00:59;35.30;;;15.02;;
19446;SDS011;9862;49.462;11.054;2022-12-18T05:03:26;34.42;;;13.63;;
19446;SDS011;9862;49.462;11.054;2022-12-18T05:05:53;31.35;;;14.50;;
19446;SDS011;9862;49.462;11.054;2022-12-18T05:08:20;39.22;;;16.27;;
19446;SDS011;9862;49.462;11.054;2022-12-18T05:10:47;33.97;;;15.13;;
19446;SDS011;9862;49.462;11.054;2022-12-18T05:13:13;35.88;;;15.10;;
19446;SDS011;9862;49.462;11.054;2022-12-18T05:15:40;34.33;;;15.60;;
19446;SDS011;9862;49.462;11.054;2022-12-18T05:18:07;33.70;;;15.45;;
19446;SDS011;9862;49.462;11.054;2022-12-18T05:20:34;32.83;;;14.52;;
19446;SDS011;9862;49.462;11.054;2022-12-18T05:23:02;35.53;;;15.30;;
19446;SDS011;9862;49.462;11.054;2022-12-18T05:25:29;37.05;;;15.32;;
19446;SDS011;9862;49.462;11.054;2022-12-18T05:27:55;34.85;;;15.10;;
19446;SDS011;9862;49.462;11.054;2022-12-18T05:30:22;33.28;;;15.20;;
19446;SDS011;9862;49.462;11.054;2022-12-18T05:32:48;32.38;;;16.00;;
19446;SDS011;9862;49.462;11.054;2022-12-18T05:35:15;34.85;;;14.85;;
19446;SDS011;9862;49.462;11.054;2022-12-18T05:37:41;33.50;;;15.85;;
19446;SDS011;9862;49.462;11.054;2022-12-18T05:40:10;33.40;;;15.05;;
19446;SDS011;9862;49.462;11.054;2022-12-18T05:42:37;37.20;;;14.98;;
19446;SDS011;9862;49.462;11.054;2022-12-18T05:45:05;29.23;;;13.48;;
19446;SDS011;9862;49.462;11.054;2022-12-18T05:47:32;31.25;;;14.77;;
19446;SDS011;9862;49.462;11.054;2022-12-18T05:49:58;32.70;;;14.70;;
19446;SDS011;9862;49.462;11.054;2022-12-18T05:52:25;33.22;;;14.73;;
19446;SDS011;9862;49.462;11.054;2022-12-18T05:54:51;36.05;;;14.70;;
19446;SDS011;9862;49.462;11.054;2022-12-18T05:57:19;34.40;;;13.73;;
19446;SDS011;9862;49.462;11.054;2022-12-18T05:59:46;35.67;;;14.55;;
19446;SDS011;9862;49.462;11.054;2022-12-18T06:02:13;33.78;;;14.48;;
19446;SDS011;9862;49.462;11.054;2022-12-18T06:04:39;37.22;;;14.45;;
19446;SDS011;9862;49.462;11.054;2022-12-18T06:07:06;30.60;;;12.65;;
19446;SDS011;9862;49.462;11.054;2022-12-18T06:09:32;30.80;;;14.25;;
19446;SDS011;9862;49.462;11.054;2022-12-18T06:11:59;34.85;;;14.38;;
19446;SDS011;9862;49.462;11.054;2022-12-18T06:14:27;38.10;;;14.98;;
19446;SDS011;9862;49.462;11.054;2022-12-18T06:16:54;37.47;;;14.02;;
19446;SDS011;9862;49.462;11.054;2022-12-18T06:19:20;38.50;;;17.33;;
19446;SDS011;9862;49.462;11.054;2022-12-18T06:21:47;46.53;;;21.17;;
19446;SDS011;9862;49.462;11.054;2022-12-18T06:24:14;41.92;;;16.48;;
19446;SDS011;9862;49.462;11.054;2022-12-18T06:26:41;33.08;;;15.25;;
19446;SDS011;9862;49.462;11.054;2022-12-18T06:29:07;40.30;;;16.63;;
19446;SDS011;9862;49.462;11.054;2022-12-18T06:31:35;36.88;;;16.40;;
19446;SDS011;9862;49.462;11.054;2022-12-18T06:34:02;34.45;;;14.43;;
19446;SDS011;9862;49.462;11.054;2022-12-18T06:36:30;35.08;;;16.38;;
19446;SDS011;9862;49.462;11.054;2022-12-18T06:38:57;39.00;;;15.88;;
19446;SDS011;9862;49.462;11.054;2022-12-18T06:41:23;37.10;;;14.65;;
19446;SDS011;9862;49.462;11.054;2022-12-18T06:43:50;37.60;;;14.88;;
19446;SDS011;9862;49.462;11.054;2022-12-18T06:46:16;42.00;;;17.17;;
19446;SDS011;9862;49.462;11.054;2022-12-18T06:48:47;32.15;;;14.88;;
19446;SDS011;9862;49.462;11.054;2022-12-18T06:51:16;36.00;;;14.35;;
19446;SDS011;9862;49.462;11.054;2022-12-18T06:53:45;35.83;;;13.75;;
19446;SDS011;9862;49.462;11.054;2022-12-18T06:56:12;36.53;;;14.18;;
19446;SDS011;9862;49.462;11.054;2022-12-18T06:58:39;33.83;;;14.40;;
19446;SDS011;9862;49.462;11.054;2022-12-18T07:01:06;34.42;;;14.95;;
19446;SDS011;9862;49.462;11.054;2022-12-18T07:03:35;35.08;;;13.93;;
19446;SDS011;9862;49.462;11.054;2022-12-18T07:06:03;33.47;;;13.65;;
19446;SDS011;9862;49.462;11.054;2022-12-18T07:08:30;35.22;;;13.93;;
19446;SDS011;9862;49.462;11.054;2022-12-18T07:10:56;32.80;;;13.60;;
19446;SDS011;9862;49.462;11.054;2022-12-18T07:13:23;29.55;;;12.63;;
19446;SDS011;9862;49.462;11.054;2022-12-18T07:15:49;30.63;;;13.02;;
19446;SDS011;9862;49.462;11.054;2022-12-18T07:18:16;37.90;;;14.60;;
19446;SDS011;9862;49.462;11.054;2022-12-18T07:20:43;32.85;;;14.38;;
19446;SDS011;9862;49.462;11.054;2022-12-18T07:23:11;34.67;;;13.18;;
19446;SDS011;9862;49.462;11.054;2022-12-18T07:25:37;34.60;;;14.50;;
19446;SDS011;9862;49.462;11.054;2022-12-18T07:28:04;33.70;;;14.00;;
19446;SDS011;9862;49.462;11.054;2022-12-18T07:30:31;32.85;;;13.70;;
19446;SDS011;9862;49.462;11.054;2022-12-18T07:32:57;42.58;;;16.95;;
19446;SDS011;9862;49.462;11.054;2022-12-18T07:35:24;35.97;;;14.10;;
19446;SDS011;9862;49.462;11.054;2022-12-18T07:37:51;38.28;;;15.13;;
19446;SDS011;9862;49.462;11.054;2022-12-18T07:40:19;38.75;;;15.00;;
19446;SDS011;9862;49.462;11.054;2022-12-18T07:42:45;30.58;;;13.10;;
19446;SDS011;9862;49.462;11.054;2022-12-18T07:45:12;35.40;;;14.00;;
19446;SDS011;9862;49.462;11.054;2022-12-18T07:47:39;36.28;;;14.55;;
19446;SDS011;9862;49.462;11.054;2022-12-18T07:50:07;34.50;;;13.63;;
19446;SDS011;9862;49.462;11.054;2022-12-18T07:52:34;39.05;;;14.20;;
19446;SDS011;9862;49.462;11.054;2022-12-18T07:55:00;34.67;;;14.13;;
19446;SDS011;9862;49.462;11.054;2022-12-18T07:57:29;31.05;;;12.95;;
19446;SDS011;9862;49.462;11.054;2022-12-18T07:59:56;36.25;;;13.90;;
19446;SDS011;9862;49.462;11.054;2022-12-18T08:02:22;33.55;;;13.65;;
19446;SDS011;9862;49.462;11.054;2022-12-18T08:04:49;39.97;;;15.13;;
19446;SDS011;9862;49.462;11.054;2022-12-18T08:07:15;33.70;;;14.57;;
19446;SDS011;9862;49.462;11.054;2022-12-18T08:09:42;38.53;;;15.13;;
19446;SDS011;9862;49.462;11.054;2022-12-18T08:12:09;37.15;;;15.05;;
19446;SDS011;9862;49.462;11.054;2022-12-18T08:14:37;33.70;;;14.93;;
19446;SDS011;9862;49.462;11.054;2022-12-18T08:17:03;38.53;;;14.63;;
19446;SDS011;9862;49.462;11.054;2022-12-18T08:19:30;36.50;;;13.70;;
19446;SDS011;9862;49.462;11.054;2022-12-18T08:21:56;36.30;;;14.10;;
19446;SDS011;9862;49.462;11.054;2022-12-18T08:24:23;41.85;;;15.68;;
19446;SDS011;9862;49.462;11.054;2022-12-18T08:26:50;37.50;;;14.85;;
19446;SDS011;9862;49.462;11.054;2022-12-18T08:29:17;33.33;;;14.50;;
19446;SDS011;9862;49.462;11.054;2022-12-18T08:31:45;33.33;;;14.30;;
19446;SDS011;9862;49.462;11.054;2022-12-18T08:34:11;34.20;;;14.45;;
19446;SDS011;9862;49.462;11.054;2022-12-18T08:36:38;33.55;;;14.13;;
19446;SDS011;9862;49.462;11.054;2022-12-18T08:39:04;33.78;;;14.15;;
19446;SDS011;9862;49.462;11.054;2022-12-18T08:41:31;32.65;;;12.73;;
19446;SDS011;9862;49.462;11.054;2022-12-18T08:43:58;34.40;;;13.80;;
19446;SDS011;9862;49.462;11.054;2022-12-18T08:46:42;45.22;;;17.67;;
19446;SDS011;9862;49.462;11.054;2022-12-18T08:49:11;34.70;;;14.15;;
19446;SDS011;9862;49.462;11.054;2022-12-18T08:51:38;34.85;;;13.73;;
19446;SDS011;9862;49.462;11.054;2022-12-18T08:54:05;37.97;;;13.63;;
19446;SDS011;9862;49.462;11.054;2022-12-18T08:56:32;35.45;;;14.48;;
19446;SDS011;9862;49.462;11.054;2022-12-18T08:58:59;30.13;;;12.23;;
19446;SDS011;9862;49.462;11.054;2022-12-18T09:01:26;30.52;;;12.77;;
19446;SDS011;9862;49.462;11.054;2022-12-18T09:03:53;30.95;;;12.38;;
19446;SDS011;9862;49.462;11.054;2022-12-18T09:06:22;26.13;;;12.38;;
19446;SDS011;9862;49.462;11.054;2022-12-18T09:08:48;37.47;;;13.38;;
19446;SDS011;9862;49.462;11.054;2022-12-18T09:11:18;32.20;;;14.38;;
19446;SDS011;9862;49.462;11.054;2022-12-18T09:13:47;31.13;;;13.02;;
19446;SDS011;9862;49.462;11.054;2022-12-18T09:16:14;31.70;;;13.40;;
19446;SDS011;9862;49.462;11.054;2022-12-18T09:18:40;31.73;;;13.43;;
19446;SDS011;9862;49.462;11.054;2022-12-18T09:21:08;30.90;;;13.05;;
19446;SDS011;9862;49.462;11.054;2022-12-18T09:23:37;39.83;;;14.18;;
19446;SDS011;9862;49.462;11.054;2022-12-18T09:26:04;31.92;;;13.38;;
19446;SDS011;9862;49.462;11.054;2022-12-18T09:28:31;30.70;;;13.75;;
19446;SDS011;9862;49.462;11.054;2022-12-18T09:30:57;28.90;;;11.50;;
19446;SDS011;9862;49.462;11.054;2022-12-18T09:33:24;36.35;;;13.55;;
19446;SDS011;9862;49.462;11.054;2022-12-18T09:35:51;30.55;;;13.50;;
19446;SDS011;9862;49.462;11.054;2022-12-18T09:38:18;32.00;;;13.02;;
19446;SDS011;9862;49.462;11.054;2022-12-18T09:40:47;29.42;;;13.50;;
19446;SDS011;9862;49.462;11.054;2022-12-18T09:43:16;29.63;;;12.23;;
19446;SDS011;9862;49.462;11.054;2022-12-18T09:45:46;32.63;;;13.65;;
19446;SDS011;9862;49.462;11.054;2022-12-18T09:48:15;29.42;;;13.18;;
19446;SDS011;9862;49.462;11.054;2022-12-18T09:50:47;30.83;;;13.02;;
19446;SDS011;9862;49.462;11.054;2022-12-18T09:53:17;29.08;;;12.38;;
19446;SDS011;9862;49.462;11.054;2022-12-18T09:55:48;29.90;;;12.80;;
19446;SDS011;9862;49.462;11.054;2022-12-18T09:58:16;31.52;;;14.13;;
19446;SDS011;9862;49.462;11.054;2022-12-18T10:00:50;31.23;;;12.80;;
19446;SDS011;9862;49.462;11.054;2022-12-18T10:03:17;36.50;;;15.82;;
19446;SDS011;9862;49.462;11.054;2022-12-18T10:05:45;35.25;;;13.63;;
19446;SDS011;9862;49.462;11.054;2022-12-18T10:08:21;37.33;;;15.10;;
19446;SDS011;9862;49.462;11.054;2022-12-18T10:10:56;30.10;;;12.43;;
19446;SDS011;9862;49.462;11.054;2022-12-18T10:13:28;42.92;;;18.23;;
19446;SDS011;9862;49.462;11.054;2022-12-18T10:16:05;44.00;;;18.65;;
19446;SDS011;9862;49.462;11.054;2022-12-18T10:18:42;46.38;;;20.05;;
19446;SDS011;9862;49.462;11.054;2022-12-18T10:21:25;32.28;;;13.57;;
19446;SDS011;9862;49.462;11.054;2022-12-18T10:23:59;25.60;;;12.13;;
19446;SDS011;9862;49.462;11.054;2022-12-18T10:26:37;32.65;;;12.75;;
19446;SDS011;9862;49.462;11.054;2022-12-18T10:29:06;32.13;;;15.27;;
19446;SDS011;9862;49.462;11.054;2022-12-18T10:31:37;53.67;;;22.08;;
19446;SDS011;9862;49.462;11.054;2022-12-18T10:34:03;44.90;;;17.42;;
19446;SDS011;9862;49.462;11.054;2022-12-18T10:36:30;30.80;;;13.18;;
19446;SDS011;9862;49.462;11.054;2022-12-18T10:38:58;26.80;;;12.00;;
19446;SDS011;9862;49.462;11.054;2022-12-18T10:41:42;27.67;;;11.98;;
19446;SDS011;9862;49.462;11.054;2022-12-18T10:44:11;28.15;;;12.57;;
19446;SDS011;9862;49.462;11.054;2022-12-18T10:46:41;77.90;;;33.10;;
19446;SDS011;9862;49.462;11.054;2022-12-18T10:49:18;68.70;;;27.38;;
19446;SDS011;9862;49.462;11.054;2022-12-18T10:51:47;32.53;;;14.90;;
19446;SDS011;9862;49.462;11.054;2022-12-18T10:54:14;30.70;;;14.63;;
19446;SDS011;9862;49.462;11.054;2022-12-18T10:56:44;73.03;;;28.63;;
19446;SDS011;9862;49.462;11.054;2022-12-18T10:59:11;37.65;;;16.42;;
19446;SDS011;9862;49.462;11.054;2022-12-18T11:01:46;35.75;;;15.07;;
19446;SDS011;9862;49.462;11.054;2022-12-18T11:04:16;29.08;;;13.07;;
19446;SDS011;9862;49.462;11.054;2022-12-18T11:06:52;31.05;;;13.15;;
19446;SDS011;9862;49.462;11.054;2022-12-18T11:09:21;52.05;;;20.35;;
19446;SDS011;9862;49.462;11.054;2022-12-18T11:11:50;52.65;;;22.55;;
19446;SDS011;9862;49.462;11.054;2022-12-18T11:14:20;35.38;;;15.15;;
19446;SDS011;9862;49.462;11.054;2022-12-18T11:16:49;27.05;;;12.68;;
19446;SDS011;9862;49.462;11.054;2022-12-18T11:19:28;29.27;;;12.45;;
19446;SDS011;9862;49.462;11.054;2022-12-18T11:21:59;32.15;;;13.57;;
19446;SDS011;9862;49.462;11.054;2022-12-18T11:24:27;30.48;;;13.38;;
19446;SDS011;9862;49.462;11.054;2022-12-18T11:26:59;31.88;;;13.60;;
19446;SDS011;9862;49.462;11.054;2022-12-18T11:29:34;29.48;;;13.20;;
19446;SDS011;9862;49.462;11.054;2022-12-18T11:35:03;30.50;;;13.63;;
19446;SDS011;9862;49.462;11.054;2022-12-18T11:37:37;30.83;;;13.02;;
19446;SDS011;9862;49.462;11.054;2022-12-18T11:40:10;30.75;;;12.65;;
19446;SDS011;9862;49.462;11.054;2022-12-18T11:42:44;25.40;;;11.07;;
19446;SDS011;9862;49.462;11.054;2022-12-18T11:45:28;36.20;;;15.35;;
19446;SDS011;9862;49.462;11.054;2022-12-18T11:47:57;31.00;;;13.38;;
19446;SDS011;9862;49.462;11.054;2022-12-18T11:50:29;26.88;;;12.07;;
19446;SDS011;9862;49.462;11.054;2022-12-18T11:52:59;44.92;;;18.23;;
19446;SDS011;9862;49.462;11.054;2022-12-18T11:55:30;42.42;;;17.27;;
19446;SDS011;9862;49.462;11.054;2022-12-18T11:58:10;26.90;;;12.60;;
19446;SDS011;9862;49.462;11.054;2022-12-18T12:00:44;29.33;;;11.95;;
19446;SDS011;9862;49.462;11.054;2022-12-18T12:03:21;24.70;;;11.93;;
19446;SDS011;9862;49.462;11.054;2022-12-18T12:06:07;31.15;;;12.38;;
19446;SDS011;9862;49.462;11.054;2022-12-18T12:08:45;28.15;;;11.02;;
19446;SDS011;9862;49.462;11.054;2022-12-18T12:11:26;28.98;;;12.52;;
19446;SDS011;9862;49.462;11.054;2022-12-18T12:14:07;27.75;;;11.57;;
19446;SDS011;9862;49.462;11.054;2022-12-18T12:16:44;42.40;;;17.55;;
19446;SDS011;9862;49.462;11.054;2022-12-18T12:19:21;133.35;;;52.75;;
19446;SDS011;9862;49.462;11.054;2022-12-18T12:22:00;45.95;;;18.92;;
19446;SDS011;9862;49.462;11.054;2022-12-18T12:24:37;37.38;;;15.25;;
19446;SDS011;9862;49.462;11.054;2022-12-18T12:27:18;27.33;;;12.68;;
19446;SDS011;9862;49.462;11.054;2022-12-18T12:29:58;27.48;;;11.82;;
19446;SDS011;9862;49.462;11.054;2022-12-18T12:32:34;25.38;;;12.30;;
19446;SDS011;9862;49.462;11.054;2022-12-18T12:35:19;31.60;;;13.02;;
19446;SDS011;9862;49.462;11.054;2022-12-18T12:37:53;24.38;;;11.95;;
19446;SDS011;9862;49.462;11.054;2022-12-18T12:40:31;31.02;;;12.23;;
19446;SDS011;9862;49.462;11.054;2022-12-18T12:43:01;27.33;;;13.07;;
19446;SDS011;9862;49.462;11.054;2022-12-18T12:45:42;29.75;;;13.00;;
19446;SDS011;9862;49.462;11.054;2022-12-18T12:48:16;38.65;;;16.38;;
19446;SDS011;9862;49.462;11.054;2022-12-18T12:50:46;46.58;;;18.83;;
19446;SDS011;9862;49.462;11.054;2022-12-18T12:53:17;34.72;;;14.77;;
19446;SDS011;9862;49.462;11.054;2022-12-18T12:55:50;37.97;;;16.63;;
19446;SDS011;9862;49.462;11.054;2022-12-18T12:58:19;31.55;;;13.95;;
19446;SDS011;9862;49.462;11.054;2022-12-18T13:01:00;28.80;;;12.80;;
19446;SDS011;9862;49.462;11.054;2022-12-18T13:03:35;30.55;;;12.77;;
19446;SDS011;9862;49.462;11.054;2022-12-18T13:06:11;27.77;;;12.40;;
19446;SDS011;9862;49.462;11.054;2022-12-18T13:08:53;28.40;;;13.13;;
19446;SDS011;9862;49.462;11.054;2022-12-18T13:11:32;28.80;;;12.07;;
19446;SDS011;9862;49.462;11.054;2022-12-18T13:14:23;46.30;;;20.55;;
19446;SDS011;9862;49.462;11.054;2022-12-18T13:20:02;28.08;;;12.50;;
19446;SDS011;9862;49.462;11.054;2022-12-18T13:22:34;28.23;;;12.50;;
19446;SDS011;9862;49.462;11.054;2022-12-18T13:25:03;29.05;;;12.70;;
19446;SDS011;9862;49.462;11.054;2022-12-18T13:28:00;27.80;;;12.50;;
19446;SDS011;9862;49.462;11.054;2022-12-18T13:30:42;30.90;;;12.75;;
19446;SDS011;9862;49.462;11.054;2022-12-18T13:36:28;29.25;;;11.77;;
19446;SDS011;9862;49.462;11.054;2022-12-18T13:48:26;28.05;;;11.68;;
19446;SDS011;9862;49.462;11.054;2022-12-18T13:50:58;28.38;;;11.63;;
19446;SDS011;9862;49.462;11.054;2022-12-18T13:53:28;39.08;;;17.63;;
19446;SDS011;9862;49.462;11.054;2022-12-18T13:55:58;33.08;;;14.50;;
19446;SDS011;9862;49.462;11.054;2022-12-18T13:58:24;31.67;;;14.52;;
19446;SDS011;9862;49.462;11.054;2022-12-18T14:00:51;27.92;;;12.32;;
19446;SDS011;9862;49.462;11.054;2022-12-18T14:03:19;29.17;;;12.88;;
19446;SDS011;9862;49.462;11.054;2022-12-18T14:05:52;29.92;;;13.25;;
19446;SDS011;9862;49.462;11.054;2022-12-18T14:08:22;26.77;;;12.25;;
19446;SDS011;9862;49.462;11.054;2022-12-18T14:10:56;25.42;;;12.48;;
19446;SDS011;9862;49.462;11.054;2022-12-18T14:13:24;27.70;;;12.07;;
19446;SDS011;9862;49.462;11.054;2022-12-18T14:15:53;24.92;;;12.40;;
19446;SDS011;9862;49.462;11.054;2022-12-18T14:18:20;28.85;;;12.32;;
19446;SDS011;9862;49.462;11.054;2022-12-18T14:20:50;29.90;;;13.02;;
19446;SDS011;9862;49.462;11.054;2022-12-18T14:23:32;43.17;;;18.25;;
19446;SDS011;9862;49.462;11.054;2022-12-18T14:26:01;34.55;;;14.07;;
19446;SDS011;9862;49.462;11.054;2022-12-18T14:28:28;45.13;;;20.52;;
19446;SDS011;9862;49.462;11.054;2022-12-18T14:30:55;70.20;;;29.42;;
19446;SDS011;9862;49.462;11.054;2022-12-18T14:33:22;26.15;;;12.25;;
19446;SDS011;9862;49.462;11.054;2022-12-18T14:35:55;86.22;;;33.45;;
19446;SDS011;9862;49.462;11.054;2022-12-18T14:38:25;60.53;;;26.13;;
19446;SDS011;9862;49.462;11.054;2022-12-18T14:40:56;42.25;;;18.33;;
19446;SDS011;9862;49.462;11.054;2022-12-18T14:43:24;27.08;;;12.23;;
19446;SDS011;9862;49.462;11.054;2022-12-18T14:45:51;25.67;;;12.07;;
19446;SDS011;9862;49.462;11.054;2022-12-18T14:48:20;30.10;;;12.63;;
19446;SDS011;9862;49.462;11.054;2022-12-18T14:50:54;23.15;;;11.25;;
19446;SDS011;9862;49.462;11.054;2022-12-18T14:53:23;24.33;;;10.65;;
19446;SDS011;9862;49.462;11.054;2022-12-18T14:55:59;24.75;;;11.63;;